Saturday, May 26, 2018, 8:09 AM EDT
Back to Local

KMDT, Harrisburg International Airport

Location: Middletown, PA, United States Lat: 40.2
Local Time: 8:09 AM EDT (12:09 GMT) Lon: -76.767
Time Zone: US/Eastern Elev: 308 ft

Show me the last for .
Show Decoded

2018-05-26 06:56 METAR KMDT 261056Z 00000KT 7SM SCT080 SCT150 21/19 A2985 RMK AO2 SLP107
                 T02060189 =
2018-05-26 05:56 METAR KMDT 260956Z 00000KT 8SM FEW050 SCT080 BKN150 20/18 A2984 RMK AO2 SLP104
                 CB DSNT W AND NW T02000183 =
2018-05-26 04:56 METAR KMDT 260856Z 00000KT 10SM CLR 20/18 A2983 RMK AO2 SLP100 T02000183 56007 =
2018-05-26 03:56 METAR KMDT 260756Z 15003KT 10SM CLR 20/18 A2984 RMK AO2 SLP102 T02000183 =
2018-05-26 02:56 METAR KMDT 260656Z 00000KT 10SM CLR 22/18 A2984 RMK AO2 SLP103 T02220183 =
2018-05-26 01:56 METAR KMDT 260556Z 23003KT 10SM CLR 24/18 A2985 RMK AO2 SLP107 T02390183 10283
                 20233 56004 =
2018-05-26 00:56 METAR KMDT 260456Z 23012KT 10SM CLR 24/18 A2985 RMK AO2 SLP108 T02440183
                 403060128 =
2018-05-25 23:56 METAR KMDT 260356Z 23010G15KT 10SM FEW070 26/18 A2986 RMK AO2 SLP108 T02560183 =
2018-05-25 22:56 METAR KMDT 260256Z 22004KT 10SM FEW250 26/18 A2986 RMK AO2 SLP111 T02610178
                 50004 =
2018-05-25 21:56 METAR KMDT 260156Z 22006KT 10SM FEW075 SCT090 27/17 A2987 RMK AO2 SLP112
                 T02670167 =
2018-05-25 20:56 METAR KMDT 260056Z VRB03KT 10SM FEW065 SCT080 27/16 A2985 RMK AO2 SLP107
                 T02670156 =
2018-05-25 19:56 METAR KMDT 252356Z 00000KT 10SM FEW080 28/16 A2985 RMK AO2 SLP108 T02780156
                 10306 20278 55008 =
2018-05-25 18:56 METAR KMDT 252256Z 22006KT 10SM BKN080 28/16 A2985 RMK AO2 SLP108 T02830156 =
2018-05-25 17:56 METAR KMDT 252156Z 23008KT 10SM FEW065 29/16 A2986 RMK AO2 SLP110 T02940161 =
2018-05-25 16:56 METAR KMDT 252056Z 24006G16KT 10SM FEW065 29/16 A2988 RMK AO2 SLP116 T02890161
                 56022 =
2018-05-25 15:56 METAR KMDT 251956Z 23011KT 10SM FEW060 29/16 A2990 RMK AO2 SLP122 T02890161 =
2018-05-25 14:56 METAR KMDT 251856Z VRB05KT 10SM FEW060 29/17 A2992 RMK AO2 SLP130 T02890172 =
2018-05-25 13:56 METAR KMDT 251756Z 00000KT 10SM FEW050 30/16 A2994 RMK AO2 SLP137 T03000161
                 10300 20178 58027 =
2018-05-25 12:56 METAR KMDT 251656Z 00000KT 10SM CLR 28/17 A2997 RMK AO2 SLP147 T02830167 =
2018-05-25 11:56 METAR KMDT 251556Z 31003KT 10SM CLR 27/15 A3000 RMK AO2 SLP157 T02720150 =
2018-05-25 10:56 METAR KMDT 251456Z 00000KT 10SM CLR 24/14 A3002 RMK AO2 SLP165 T02390139 58015 =
2018-05-25 09:56 METAR KMDT 251356Z 00000KT 10SM CLR 21/13 A3004 RMK AO2 SLP172 T02110133 =
2018-05-25 08:56 METAR KMDT 251256Z 00000KT 10SM CLR 21/14 A3006 RMK AO2 SLP177 T02060139 =

Support USWX by starting your Amazon purchase here.